Time;durP1;ratioP1;P1;durP2;ratioP2;P2;SDS_P1;SDS_P2;PMS_P1;PMS_P2;Temp;Humidity;BMP_temperature;BMP_pressure;BME280_temperature;BME280_humidity;BME280_pressure;Samples;Min_cycle;Max_cycle;Signal;HPM_P1;HPM_P2
2024/02/03 00:01:23;;;;;;;10.97;7.83;;;8.40;99.90;;;;;;5033826;28;20451;-72
2024/02/03 00:04:09;;;;;;;10.70;8.77;;;8.50;99.90;;;;;;5036064;28;20449;-72
2024/02/03 00:06:55;;;;;;;12.30;9.57;;;8.50;99.90;;;;;;5028856;28;20478;-72
2024/02/03 00:09:40;;;;;;;9.73;8.67;;;8.50;99.90;;;;;;5029095;28;20890;-72
2024/02/03 00:12:28;;;;;;;10.00;8.90;;;8.60;99.90;;;;;;5027624;28;20548;-72
2024/02/03 00:15:14;;;;;;;12.47;9.23;;;8.60;99.90;;;;;;5031770;28;20504;-71
2024/02/03 00:18:01;;;;;;;10.73;8.47;;;8.60;99.90;;;;;;5041073;28;20485;-72
2024/02/03 00:20:47;;;;;;;14.60;9.60;;;8.60;99.90;;;;;;5040967;28;20463;-73
2024/02/03 00:23:32;;;;;;;10.60;7.87;;;8.60;99.90;;;;;;5035393;28;20423;-72
2024/02/03 00:26:18;;;;;;;10.30;8.40;;;8.60;99.90;;;;;;5033948;28;20993;-72
2024/02/03 00:29:03;;;;;;;10.23;9.10;;;8.60;99.90;;;;;;5032939;28;20441;-71
2024/02/03 00:31:49;;;;;;;10.67;9.03;;;8.60;99.90;;;;;;5035204;28;20438;-72
2024/02/03 00:34:36;;;;;;;18.87;10.30;;;8.70;99.90;;;;;;5038229;28;20452;-72
2024/02/03 00:37:21;;;;;;;13.90;9.87;;;8.70;99.90;;;;;;5041031;28;20442;-72
2024/02/03 00:40:09;;;;;;;12.73;9.43;;;8.70;99.90;;;;;;5034271;28;20617;-72
2024/02/03 00:42:54;;;;;;;11.93;8.57;;;8.70;99.90;;;;;;5050533;28;20790;-72
2024/02/03 00:45:40;;;;;;;12.23;9.13;;;8.70;99.90;;;;;;5049373;28;20450;-72
2024/02/03 00:48:25;;;;;;;12.20;8.97;;;8.70;99.90;;;;;;5039675;28;20402;-72
2024/02/03 00:51:12;;;;;;;10.90;8.40;;;8.70;99.90;;;;;;5036807;28;20402;-72
2024/02/03 00:53:58;;;;;;;11.83;9.37;;;8.70;99.90;;;;;;5041518;28;20421;-72
2024/02/03 00:56:43;;;;;;;12.03;9.70;;;8.70;99.90;;;;;;5047008;28;20436;-72
2024/02/03 00:59:29;;;;;;;14.03;10.60;;;8.70;99.90;;;;;;5042948;28;20465;-71
2024/02/03 01:02:15;;;;;;;12.83;10.70;;;8.70;99.90;;;;;;5029592;28;20451;-72
2024/02/03 01:05:01;;;;;;;14.00;10.53;;;8.70;99.90;;;;;;5037044;28;20409;-72
2024/02/03 01:07:47;;;;;;;12.83;10.40;;;8.60;99.90;;;;;;5043059;28;20426;-72
2024/02/03 01:10:33;;;;;;;12.30;9.60;;;8.60;99.90;;;;;;5046453;28;21015;-71
2024/02/03 01:13:18;;;;;;;13.73;10.50;;;8.60;99.90;;;;;;5024657;28;20447;-71
2024/02/03 01:16:05;;;;;;;11.63;9.80;;;8.60;99.90;;;;;;5030967;28;20572;-72
2024/02/03 01:18:50;;;;;;;12.07;9.63;;;8.50;99.90;;;;;;5041464;28;20435;-72
2024/02/03 01:21:36;;;;;;;12.40;9.17;;;8.60;99.90;;;;;;5036678;28;20450;-72
2024/02/03 01:24:23;;;;;;;12.93;10.37;;;8.60;99.90;;;;;;5035695;28;20549;-72
2024/02/03 01:27:09;;;;;;;13.57;9.50;;;8.60;99.90;;;;;;5032113;28;20809;-72
2024/02/03 01:29:56;;;;;;;12.73;10.53;;;8.70;99.90;;;;;;5035193;28;20892;-72
2024/02/03 01:32:41;;;;;;;12.50;9.77;;;8.60;99.90;;;;;;5046039;28;20427;-71
2024/02/03 01:35:27;;;;;;;12.00;9.23;;;8.60;99.90;;;;;;5037203;28;20449;-72
2024/02/03 01:38:13;;;;;;;11.87;9.80;;;8.60;99.90;;;;;;5037208;28;20933;-72
2024/02/03 01:41:00;;;;;;;12.47;9.20;;;8.60;99.90;;;;;;5029167;28;20967;-72
2024/02/03 01:43:46;;;;;;;12.17;8.57;;;8.70;99.90;;;;;;5039381;28;20432;-72
2024/02/03 01:46:32;;;;;;;9.90;8.40;;;8.70;99.90;;;;;;5033736;28;21106;-72
2024/02/03 01:49:18;;;;;;;13.60;9.37;;;8.70;99.90;;;;;;5035664;28;20479;-72
2024/02/03 01:52:05;;;;;;;13.00;9.40;;;8.60;99.90;;;;;;5029635;28;20545;-73
2024/02/03 01:54:51;;;;;;;10.37;8.50;;;8.60;99.90;;;;;;5041216;28;20962;-72
2024/02/03 01:57:41;;;;;;;13.03;9.40;;;8.60;99.90;;;;;;5038410;28;20440;-72
2024/02/03 02:00:27;;;;;;;8.87;7.50;;;8.60;99.90;;;;;;5039932;28;20590;-73
2024/02/03 02:03:14;;;;;;;10.53;8.87;;;8.60;99.90;;;;;;5037115;28;20431;-72
2024/02/03 02:06:00;;;;;;;9.97;8.20;;;8.60;99.90;;;;;;5037542;28;20468;-73
2024/02/03 02:08:45;;;;;;;11.63;9.37;;;8.70;99.90;;;;;;5043787;28;20565;-72
2024/02/03 02:11:31;;;;;;;11.57;9.40;;;8.60;99.90;;;;;;5038995;28;20435;-72
2024/02/03 02:14:19;;;;;;;11.87;8.40;;;8.60;99.90;;;;;;5040524;28;20439;-72
2024/02/03 02:17:05;;;;;;;15.80;9.10;;;8.60;99.90;;;;;;5038132;28;20427;-73
2024/02/03 02:19:50;;;;;;;12.37;8.60;;;8.60;99.90;;;;;;5038653;28;20835;-73
2024/02/03 02:22:38;;;;;;;10.50;8.47;;;8.60;99.90;;;;;;5041006;28;20422;-72
2024/02/03 02:25:23;;;;;;;14.00;10.00;;;8.50;99.90;;;;;;5038108;28;20562;-73
2024/02/03 02:28:09;;;;;;;13.47;9.40;;;8.50;99.90;;;;;;5039449;28;20965;-73
2024/02/03 02:30:55;;;;;;;10.17;9.00;;;8.50;99.90;;;;;;5033611;28;20453;-73
2024/02/03 02:33:40;;;;;;;10.03;8.90;;;8.50;99.90;;;;;;5051372;28;20425;-73
2024/02/03 02:36:25;;;;;;;10.43;8.50;;;8.50;99.90;;;;;;5045517;28;20445;-73
2024/02/03 02:39:14;;;;;;;11.40;9.77;;;8.60;99.90;;;;;;5044813;28;20433;-72
2024/02/03 02:41:59;;;;;;;12.37;8.60;;;8.60;99.90;;;;;;5040839;28;20402;-72
2024/02/03 02:44:45;;;;;;;13.17;10.70;;;8.60;99.90;;;;;;5040195;28;20404;-72
2024/02/03 02:47:31;;;;;;;10.70;8.27;;;8.70;99.90;;;;;;5044706;28;20477;-73
2024/02/03 02:50:17;;;;;;;14.37;10.00;;;8.60;99.90;;;;;;5043179;28;20452;-72
2024/02/03 02:53:03;;;;;;;12.90;8.67;;;8.60;99.90;;;;;;5040791;28;20431;-73
2024/02/03 02:55:49;;;;;;;14.13;9.37;;;8.60;99.90;;;;;;5042498;28;20481;-73
2024/02/03 02:58:35;;;;;;;12.57;10.40;;;8.60;99.90;;;;;;5043420;28;20431;-73
2024/02/03 03:01:20;;;;;;;17.30;9.50;;;8.60;99.90;;;;;;5044986;28;20430;-73
2024/02/03 03:04:06;;;;;;;13.17;9.40;;;8.60;99.90;;;;;;5044936;28;20442;-72
2024/02/03 03:06:52;;;;;;;13.50;9.60;;;8.60;99.90;;;;;;5047890;28;20445;-72
2024/02/03 03:09:37;;;;;;;14.63;10.67;;;8.60;99.90;;;;;;5045622;28;20452;-72
2024/02/03 03:12:24;;;;;;;14.30;10.33;;;8.60;99.90;;;;;;5043544;28;20434;-73
2024/02/03 03:15:10;;;;;;;14.20;11.33;;;8.50;99.90;;;;;;5034214;28;20427;-72
2024/02/03 03:17:55;;;;;;;14.43;10.50;;;8.50;99.90;;;;;;5026123;28;20414;-73
2024/02/03 03:20:43;;;;;;;12.17;9.53;;;8.50;99.90;;;;;;5023818;28;20462;-73
2024/02/03 03:23:28;;;;;;;12.77;9.70;;;8.50;99.90;;;;;;5026166;28;20952;-72
2024/02/03 03:26:14;;;;;;;19.03;9.80;;;8.50;99.90;;;;;;5033890;28;20477;-73
2024/02/03 03:29:00;;;;;;;14.20;9.77;;;8.50;99.90;;;;;;5029455;28;20458;-73
2024/02/03 03:31:46;;;;;;;12.53;10.00;;;8.50;99.90;;;;;;5033534;28;21018;-72
2024/02/03 03:34:32;;;;;;;12.67;10.03;;;8.50;99.90;;;;;;5027247;28;20421;-72
2024/02/03 03:37:17;;;;;;;11.73;9.37;;;8.50;99.90;;;;;;5025632;28;20906;-72
2024/02/03 03:40:03;;;;;;;14.03;9.20;;;8.50;99.90;;;;;;5032081;28;20537;-72
2024/02/03 03:42:49;;;;;;;11.53;9.80;;;8.50;99.90;;;;;;5026722;28;20459;-72
2024/02/03 03:45:36;;;;;;;18.00;9.90;;;8.50;99.90;;;;;;5038610;28;20443;-73
2024/02/03 03:48:22;;;;;;;12.30;9.70;;;8.40;99.90;;;;;;5026179;28;20510;-73
2024/02/03 03:51:07;;;;;;;13.00;9.83;;;8.50;99.90;;;;;;5028429;28;20914;-73
2024/02/03 03:53:53;;;;;;;13.20;9.43;;;8.40;99.90;;;;;;5029726;28;20446;-72
2024/02/03 03:56:39;;;;;;;12.63;9.33;;;8.50;99.90;;;;;;5023402;28;20530;-73
2024/02/03 03:59:25;;;;;;;10.83;9.13;;;8.40;99.90;;;;;;5026471;28;20461;-72
2024/02/03 04:02:14;;;;;;;12.63;9.77;;;8.50;99.90;;;;;;5017955;28;20439;-72
2024/02/03 04:05:00;;;;;;;17.03;10.70;;;8.50;99.90;;;;;;5025992;28;20447;-73
2024/02/03 04:07:45;;;;;;;13.20;9.30;;;8.50;99.90;;;;;;5032161;28;20502;-73
2024/02/03 04:10:31;;;;;;;12.20;10.03;;;8.50;99.90;;;;;;5031945;28;20493;-72
2024/02/03 04:13:17;;;;;;;13.93;11.00;;;8.60;99.90;;;;;;5029141;28;20526;-72
2024/02/03 04:16:04;;;;;;;18.30;11.10;;;8.60;99.90;;;;;;5027875;28;20438;-72
2024/02/03 04:18:51;;;;;;;17.80;11.27;;;8.60;99.90;;;;;;5027123;28;20861;-73
2024/02/03 04:21:37;;;;;;;15.43;12.57;;;8.60;99.90;;;;;;5028380;28;20505;-72
2024/02/03 04:24:22;;;;;;;20.90;12.67;;;8.60;99.90;;;;;;5029803;28;20450;-72
2024/02/03 04:27:08;;;;;;;16.07;12.57;;;8.60;99.90;;;;;;5027526;28;20582;-72
2024/02/03 04:29:54;;;;;;;18.67;12.47;;;8.50;99.90;;;;;;5024120;28;20597;-73
2024/02/03 04:32:40;;;;;;;15.83;11.70;;;8.40;99.90;;;;;;5033674;28;20451;-72
2024/02/03 04:35:27;;;;;;;18.47;12.40;;;8.50;99.90;;;;;;5043532;28;20440;-72
2024/02/03 04:38:12;;;;;;;16.60;12.70;;;8.40;99.90;;;;;;5032235;28;20498;-72
2024/02/03 04:40:58;;;;;;;17.80;13.07;;;8.40;99.90;;;;;;5026782;28;20444;-72
2024/02/03 04:43:43;;;;;;;15.60;12.73;;;8.40;99.90;;;;;;5030231;28;20446;-72
2024/02/03 04:46:29;;;;;;;19.17;12.87;;;8.50;99.90;;;;;;5037407;28;20477;-72
2024/02/03 04:49:15;;;;;;;14.83;11.23;;;8.60;99.90;;;;;;5023633;28;20467;-72
2024/02/03 04:52:02;;;;;;;15.53;12.37;;;8.60;99.90;;;;;;5031430;28;20473;-72
2024/02/03 04:54:47;;;;;;;20.87;11.20;;;8.60;99.90;;;;;;5032294;28;20446;-72
2024/02/03 04:57:33;;;;;;;15.23;11.47;;;8.50;99.90;;;;;;5029339;28;20992;-72
2024/02/03 05:00:19;;;;;;;16.57;11.40;;;8.50;99.90;;;;;;5033120;28;20569;-72
2024/02/03 05:03:05;;;;;;;15.70;11.20;;;8.50;99.90;;;;;;5027322;28;20442;-72
2024/02/03 05:05:51;;;;;;;15.60;11.60;;;8.60;99.90;;;;;;5031959;28;20496;-72
2024/02/03 05:08:38;;;;;;;16.40;11.13;;;8.60;99.90;;;;;;5027257;28;20522;-72
2024/02/03 05:11:24;;;;;;;14.53;11.23;;;8.60;99.90;;;;;;5032077;28;20429;-72
2024/02/03 05:14:09;;;;;;;16.07;13.23;;;8.60;99.90;;;;;;5024298;28;20866;-73
2024/02/03 05:16:55;;;;;;;16.53;11.10;;;8.60;99.90;;;;;;5024898;28;20435;-72
2024/02/03 05:19:41;;;;;;;16.30;12.47;;;8.60;99.90;;;;;;5024365;28;20640;-72
2024/02/03 05:22:26;;;;;;;16.57;12.60;;;8.60;99.90;;;;;;5035881;28;20450;-72
2024/02/03 05:25:14;;;;;;;14.60;11.60;;;8.50;99.90;;;;;;5027703;28;20447;-72
2024/02/03 05:28:00;;;;;;;20.80;12.70;;;8.50;99.90;;;;;;5031163;28;20474;-72
2024/02/03 05:30:45;;;;;;;17.30;12.93;;;8.50;99.90;;;;;;5030954;28;20824;-72
2024/02/03 05:33:31;;;;;;;14.20;11.90;;;8.50;99.90;;;;;;5036446;28;20525;-73
2024/02/03 05:36:16;;;;;;;19.37;13.17;;;8.40;99.90;;;;;;5032396;28;20459;-72
2024/02/03 05:39:03;;;;;;;13.10;10.70;;;8.40;99.90;;;;;;5030081;28;20504;-73
2024/02/03 05:41:50;;;;;;;14.97;12.27;;;8.40;99.90;;;;;;5027929;28;20460;-73
2024/02/03 05:44:35;;;;;;;15.00;11.83;;;8.40;99.90;;;;;;5026683;28;21658;-72
2024/02/03 05:47:21;;;;;;;14.67;11.13;;;8.40;99.90;;;;;;5023482;28;20471;-73
2024/02/03 05:50:08;;;;;;;15.47;11.93;;;8.40;99.90;;;;;;5036160;28;20597;-73
2024/02/03 05:52:53;;;;;;;16.27;12.27;;;8.40;99.90;;;;;;5037007;28;20455;-72
2024/02/03 05:55:39;;;;;;;14.73;11.47;;;8.40;99.90;;;;;;5026403;28;20454;-72
2024/02/03 05:58:26;;;;;;;18.40;12.57;;;8.40;99.90;;;;;;5028257;28;21036;-72
2024/02/03 06:01:12;;;;;;;16.00;11.57;;;8.30;99.90;;;;;;5027857;28;20458;-73
2024/02/03 06:03:57;;;;;;;15.17;12.50;;;8.40;99.90;;;;;;5020964;28;20901;-72
2024/02/03 06:06:43;;;;;;;16.53;12.20;;;8.40;99.90;;;;;;5037292;28;21264;-72
2024/02/03 06:09:29;;;;;;;13.17;10.37;;;8.40;99.90;;;;;;5021803;28;20654;-72
2024/02/03 06:12:15;;;;;;;15.20;10.87;;;8.50;99.90;;;;;;5028994;28;20458;-73
2024/02/03 06:15:01;;;;;;;14.57;10.63;;;8.50;99.90;;;;;;5022944;28;20447;-72
2024/02/03 06:17:48;;;;;;;15.43;11.37;;;8.40;99.90;;;;;;5035031;28;20565;-73
2024/02/03 06:20:34;;;;;;;14.97;10.27;;;8.30;99.90;;;;;;5022496;28;20514;-72
2024/02/03 06:23:19;;;;;;;13.50;9.67;;;8.30;99.90;;;;;;5028754;28;20458;-72
2024/02/03 06:26:05;;;;;;;13.60;10.70;;;8.40;99.90;;;;;;5020622;28;20431;-73
2024/02/03 06:28:50;;;;;;;12.37;9.50;;;8.40;99.90;;;;;;5024706;28;20441;-73
2024/02/03 06:31:38;;;;;;;12.33;9.50;;;8.40;99.90;;;;;;5026866;28;20929;-73
2024/02/03 06:34:23;;;;;;;11.13;9.27;;;8.40;99.90;;;;;;5032439;28;20425;-72
2024/02/03 06:37:09;;;;;;;14.60;9.80;;;8.40;99.90;;;;;;5030953;28;20435;-72
2024/02/03 06:39:55;;;;;;;11.80;8.27;;;8.40;99.90;;;;;;5021815;28;20531;-73
2024/02/03 06:42:40;;;;;;;10.97;8.10;;;8.40;99.90;;;;;;5027403;28;20446;-72
2024/02/03 06:45:27;;;;;;;10.60;7.63;;;8.40;99.90;;;;;;5020026;28;20483;-73
2024/02/03 06:48:15;;;;;;;14.50;8.07;;;8.30;99.90;;;;;;5033926;28;20861;-72
2024/02/03 06:51:00;;;;;;;13.07;9.10;;;8.30;99.90;;;;;;5041859;28;20419;-72
2024/02/03 06:53:46;;;;;;;8.67;6.70;;;8.30;99.90;;;;;;5029691;28;20503;-72
2024/02/03 06:56:32;;;;;;;19.10;7.20;;;8.30;99.90;;;;;;5042467;28;20422;-72
2024/02/03 06:59:17;;;;;;;12.00;8.27;;;8.30;99.90;;;;;;5038269;28;20459;-73
2024/02/03 07:02:03;;;;;;;9.90;7.10;;;8.30;99.90;;;;;;5030201;28;20562;-72
2024/02/03 07:04:50;;;;;;;9.37;6.93;;;8.20;99.90;;;;;;5026012;28;21127;-73
2024/02/03 07:07:36;;;;;;;8.60;6.10;;;8.30;99.90;;;;;;5035181;28;20936;-74
2024/02/03 07:10:22;;;;;;;8.67;6.97;;;8.30;99.90;;;;;;5036854;28;20661;-73
2024/02/03 07:13:08;;;;;;;24.30;15.83;;;8.30;99.90;;;;;;5044512;28;20422;-72
2024/02/03 07:15:53;;;;;;;10.83;8.20;;;8.30;99.90;;;;;;5042279;28;20431;-73
2024/02/03 07:18:39;;;;;;;12.20;7.50;;;8.30;99.90;;;;;;5041298;28;20991;-73
2024/02/03 07:21:26;;;;;;;8.93;6.53;;;8.40;99.90;;;;;;5043645;28;20509;-72
2024/02/03 07:24:12;;;;;;;7.40;4.87;;;8.30;99.90;;;;;;5032696;28;20522;-73
2024/02/03 07:26:57;;;;;;;7.07;5.00;;;8.30;99.90;;;;;;5032209;28;20444;-73
2024/02/03 07:29:43;;;;;;;8.17;5.40;;;8.30;99.90;;;;;;5030842;28;20471;-73
2024/02/03 07:32:29;;;;;;;8.20;5.10;;;8.30;99.90;;;;;;5036263;28;20455;-73
2024/02/03 07:35:14;;;;;;;14.40;6.83;;;8.30;99.90;;;;;;5040729;28;21031;-73
2024/02/03 07:38:02;;;;;;;243.17;98.97;;;8.30;99.90;;;;;;5025653;28;20963;-73
2024/02/03 07:40:47;;;;;;;57.93;27.20;;;8.30;99.90;;;;;;5027282;28;20482;-72
2024/02/03 07:43:33;;;;;;;119.83;72.33;;;8.30;99.90;;;;;;5027333;28;20457;-71
2024/02/03 07:46:18;;;;;;;143.93;89.73;;;8.30;99.90;;;;;;5028421;28;20440;-72
2024/02/03 07:49:05;;;;;;;36.63;22.63;;;8.30;99.90;;;;;;5023463;28;20537;-72
2024/02/03 07:51:51;;;;;;;17.67;11.07;;;8.30;99.90;;;;;;5027733;28;21053;-72
2024/02/03 07:54:38;;;;;;;13.17;7.00;;;8.30;99.90;;;;;;5035036;28;20450;-72
2024/02/03 07:57:24;;;;;;;18.90;9.37;;;8.30;99.90;;;;;;5022994;28;20550;-72
2024/02/03 08:00:10;;;;;;;25.27;12.57;;;8.40;99.90;;;;;;5022026;28;20836;-72
2024/02/03 08:02:55;;;;;;;9.43;5.77;;;8.40;99.90;;;;;;5044363;28;20405;-71
2024/02/03 08:05:41;;;;;;;10.33;5.83;;;8.40;99.90;;;;;;5024363;28;20466;-74
2024/02/03 08:08:26;;;;;;;8.67;5.77;;;8.40;99.90;;;;;;5022032;28;20693;-71
2024/02/03 08:11:14;;;;;;;35.00;21.87;;;8.30;99.90;;;;;;5032343;28;20444;-72
2024/02/03 08:13:59;;;;;;;10.03;7.80;;;8.30;99.90;;;;;;5025927;28;21089;-72
2024/02/03 08:16:45;;;;;;;6.37;4.63;;;8.40;99.90;;;;;;5024624;28;20895;-72
2024/02/03 08:19:31;;;;;;;11.70;8.50;;;8.40;99.90;;;;;;5028921;28;20455;-72
2024/02/03 08:22:16;;;;;;;12.03;7.50;;;8.40;99.90;;;;;;5025833;28;20565;-72
2024/02/03 08:25:02;;;;;;;8.10;6.00;;;8.40;99.90;;;;;;5030874;28;20439;-72
2024/02/03 08:27:49;;;;;;;7.30;3.83;;;8.40;99.90;;;;;;5028563;28;20554;-72
2024/02/03 08:30:37;;;;;;;4.90;4.30;;;8.40;99.90;;;;;;5022472;28;20478;-72
2024/02/03 08:33:25;;;;;;;8.50;3.27;;;8.50;99.90;;;;;;5019031;28;20523;-72
2024/02/03 08:36:11;;;;;;;6.03;3.60;;;8.40;99.90;;;;;;5019234;28;20825;-72
2024/02/03 08:38:56;;;;;;;3.60;3.00;;;8.30;99.90;;;;;;5023564;28;20449;-71
2024/02/03 08:41:42;;;;;;;6.77;3.13;;;8.40;99.90;;;;;;5021190;28;20445;-72
2024/02/03 08:44:29;;;;;;;7.33;3.73;;;8.40;99.90;;;;;;5018350;28;20455;-72
2024/02/03 08:47:15;;;;;;;3.70;3.23;;;8.50;99.90;;;;;;5020292;28;20602;-71
2024/02/03 08:50:00;;;;;;;4.57;3.07;;;8.50;99.90;;;;;;5019742;28;20475;-72
2024/02/03 08:52:46;;;;;;;5.73;3.50;;;8.50;99.90;;;;;;5024200;28;20586;-72
2024/02/03 08:55:32;;;;;;;3.90;2.97;;;8.60;99.90;;;;;;5030879;28;20451;-72
2024/02/03 08:58:17;;;;;;;5.17;3.70;;;8.60;99.90;;;;;;5023224;28;20811;-72
2024/02/03 09:01:04;;;;;;;3.77;3.40;;;8.70;99.90;;;;;;5028807;28;20941;-72
2024/02/03 09:03:50;;;;;;;3.80;3.27;;;8.60;99.90;;;;;;5030826;28;20446;-72
2024/02/03 09:06:35;;;;;;;5.20;2.90;;;8.60;99.90;;;;;;5034552;28;20450;-72
2024/02/03 09:09:21;;;;;;;4.30;3.53;;;8.50;99.90;;;;;;5027798;28;20493;-71
2024/02/03 09:12:08;;;;;;;3.70;3.30;;;8.50;99.90;;;;;;5029125;28;20450;-71
2024/02/03 09:14:53;;;;;;;3.93;3.03;;;8.50;99.90;;;;;;5029101;28;20446;-73
2024/02/03 09:17:41;;;;;;;4.63;3.37;;;8.50;99.90;;;;;;5028404;28;20441;-72
2024/02/03 09:20:26;;;;;;;4.87;3.97;;;8.60;99.90;;;;;;5028674;28;20466;-72
2024/02/03 09:23:12;;;;;;;4.33;3.33;;;8.60;99.90;;;;;;5031860;28;20450;-72
2024/02/03 09:25:57;;;;;;;5.50;3.90;;;8.50;99.90;;;;;;5029295;28;20442;-71
2024/02/03 09:28:43;;;;;;;4.53;3.80;;;8.60;99.90;;;;;;5030824;28;20560;-72
2024/02/03 09:31:29;;;;;;;7.37;3.50;;;8.60;99.90;;;;;;5029780;28;20594;-72
2024/02/03 09:34:16;;;;;;;3.90;3.10;;;8.60;99.90;;;;;;5027803;28;20442;-72
2024/02/03 09:37:01;;;;;;;6.60;3.47;;;8.60;99.90;;;;;;5027427;28;20513;-72
2024/02/03 09:39:47;;;;;;;5.10;3.00;;;8.60;99.90;;;;;;5025117;28;20510;-72
2024/02/03 09:42:33;;;;;;;5.37;3.57;;;8.60;99.90;;;;;;5030938;28;20579;-72
2024/02/03 09:45:21;;;;;;;3.50;2.57;;;8.70;99.90;;;;;;5032186;28;22516;-72
2024/02/03 09:48:07;;;;;;;3.93;3.40;;;8.70;99.90;;;;;;5034497;28;20471;-72
2024/02/03 09:50:54;;;;;;;4.80;3.20;;;8.60;99.90;;;;;;5028703;28;20805;-72
2024/02/03 09:53:40;;;;;;;3.70;3.03;;;8.70;99.90;;;;;;5041286;28;20997;-72
2024/02/03 09:56:25;;;;;;;3.80;2.87;;;8.80;99.90;;;;;;5030020;28;20463;-72
2024/02/03 09:59:11;;;;;;;5.60;3.20;;;8.80;99.90;;;;;;5032275;28;20511;-72
2024/02/03 10:02:00;;;;;;;3.90;3.17;;;8.80;99.90;;;;;;5034384;28;20425;-72
2024/02/03 10:04:46;;;;;;;4.00;3.07;;;8.80;99.90;;;;;;5033588;28;20452;-72
2024/02/03 10:07:33;;;;;;;5.10;2.80;;;8.90;99.90;;;;;;5033738;28;20439;-72
2024/02/03 10:10:19;;;;;;;3.67;2.77;;;8.80;99.90;;;;;;5022797;28;20472;-72
2024/02/03 10:13:07;;;;;;;3.63;2.90;;;8.80;99.90;;;;;;5026578;28;20439;-72
2024/02/03 10:16:01;;;;;;;5.30;3.30;;;8.80;99.90;;;;;;5031930;28;20425;-72
2024/02/03 10:18:49;;;;;;;3.63;3.07;;;8.80;99.90;;;;;;5031372;28;20523;-72
2024/02/03 10:21:34;;;;;;;14.03;4.67;;;8.80;99.90;;;;;;5027989;28;20451;-72
2024/02/03 10:24:27;;;;;;;3.97;3.30;;;8.90;99.90;;;;;;5030181;28;20455;-72
2024/02/03 10:27:12;;;;;;;4.00;2.80;;;8.90;99.90;;;;;;5023325;28;20961;-72
2024/02/03 10:29:58;;;;;;;3.17;2.40;;;8.80;99.90;;;;;;5028249;28;21016;-72
2024/02/03 10:32:46;;;;;;;6.87;3.13;;;8.90;99.90;;;;;;5028151;28;20964;-72
2024/02/03 10:35:33;;;;;;;3.20;2.27;;;8.80;99.90;;;;;;5031948;28;20994;-72
2024/02/03 10:38:20;;;;;;;7.50;4.77;;;8.80;99.90;;;;;;5030689;28;20448;-73
2024/02/03 10:41:11;;;;;;;4.50;2.90;;;8.80;99.90;;;;;;5026758;28;20449;-71
2024/02/03 10:44:03;;;;;;;8.63;2.73;;;8.80;99.90;;;;;;5026623;28;20451;-71
2024/02/03 10:46:52;;;;;;;9.00;5.70;;;8.80;99.90;;;;;;5030617;28;20974;-71
2024/02/03 10:49:44;;;;;;;4.27;2.67;;;8.80;99.90;;;;;;5029682;28;20820;-71
2024/02/03 10:52:31;;;;;;;2.83;2.10;;;8.80;99.90;;;;;;5028560;28;20447;-71
2024/02/03 10:55:20;;;;;;;3.90;2.90;;;8.90;99.90;;;;;;5029258;28;20437;-71
2024/02/03 10:58:09;;;;;;;3.97;2.90;;;8.80;99.90;;;;;;5028674;28;20939;-71
2024/02/03 11:00:56;;;;;;;3.10;1.93;;;8.80;99.90;;;;;;5024539;28;21050;-71
2024/02/03 11:03:42;;;;;;;4.30;2.33;;;8.80;99.90;;;;;;5030340;28;20617;-71
2024/02/03 11:06:28;;;;;;;3.53;2.57;;;8.80;99.90;;;;;;5026967;28;20432;-71
2024/02/03 11:09:17;;;;;;;3.70;2.17;;;8.70;99.90;;;;;;5032439;28;20477;-71
2024/02/03 11:12:03;;;;;;;3.20;2.20;;;8.80;99.90;;;;;;5026924;28;20422;-71
2024/02/03 11:14:50;;;;;;;2.60;1.90;;;8.80;99.90;;;;;;5027069;28;20444;-71
2024/02/03 11:17:36;;;;;;;2.40;1.90;;;8.80;99.90;;;;;;5024139;28;20443;-72
2024/02/03 11:20:23;;;;;;;3.17;2.13;;;8.80;99.90;;;;;;5026554;28;20586;-72
2024/02/03 11:23:15;;;;;;;4.00;2.10;;;8.80;99.90;;;;;;5030693;28;20474;-73
2024/02/03 11:26:01;;;;;;;4.70;2.20;;;8.80;99.90;;;;;;5031120;28;20978;-73
2024/02/03 11:28:47;;;;;;;3.33;2.70;;;8.80;99.90;;;;;;5032206;28;20487;-72
2024/02/03 11:31:34;;;;;;;3.10;2.13;;;8.80;99.90;;;;;;5025000;28;20468;-73
2024/02/03 11:34:23;;;;;;;3.20;2.00;;;8.80;99.90;;;;;;5022581;28;20451;-70
2024/02/03 11:37:13;;;;;;;3.10;1.93;;;8.90;99.90;;;;;;5031559;28;20463;-72
2024/02/03 11:40:07;;;;;;;2.90;2.17;;;8.80;99.90;;;;;;5027827;28;20446;-72
2024/02/03 11:42:53;;;;;;;5.47;3.30;;;8.80;99.90;;;;;;5029923;28;20470;-72
2024/02/03 11:45:44;;;;;;;6.73;3.43;;;8.90;99.90;;;;;;5030903;28;21175;-72
2024/02/03 11:48:31;;;;;;;4.30;2.70;;;8.90;99.90;;;;;;5026935;28;20841;-72
2024/02/03 11:51:17;;;;;;;4.93;2.30;;;8.90;99.90;;;;;;5027153;28;20417;-72
2024/02/03 11:54:06;;;;;;;3.60;2.50;;;8.90;99.90;;;;;;5027805;28;20455;-73
2024/02/03 11:56:51;;;;;;;4.93;2.57;;;8.90;99.90;;;;;;5027061;28;20554;-72
2024/02/03 11:59:38;;;;;;;4.17;2.97;;;8.90;99.90;;;;;;5026079;28;20509;-71
2024/02/03 12:02:23;;;;;;;4.30;2.63;;;8.90;99.90;;;;;;5029624;28;20815;-72
2024/02/03 12:05:11;;;;;;;3.93;2.50;;;8.90;99.90;;;;;;5027610;28;21229;-71
2024/02/03 12:07:56;;;;;;;6.70;2.63;;;8.80;99.90;;;;;;5021583;28;20452;-71
2024/02/03 12:10:42;;;;;;;4.40;2.50;;;8.90;99.90;;;;;;5028107;28;20946;-71
2024/02/03 12:13:35;;;;;;;3.40;2.70;;;8.90;99.90;;;;;;5028577;28;20583;-71
2024/02/03 12:16:21;;;;;;;4.30;2.10;;;9.00;99.90;;;;;;5026876;28;20709;-71
2024/02/03 12:19:06;;;;;;;3.33;2.30;;;9.00;99.90;;;;;;5025550;28;20463;-71
2024/02/03 12:21:54;;;;;;;3.27;2.27;;;9.10;99.90;;;;;;5025123;28;20516;-71
2024/02/03 12:24:40;;;;;;;4.80;2.43;;;9.10;99.90;;;;;;5033764;28;20450;-71
2024/02/03 12:27:25;;;;;;;3.50;2.47;;;9.10;99.90;;;;;;5029330;28;20442;-71
2024/02/03 12:30:16;;;;;;;3.50;2.10;;;9.10;99.90;;;;;;5029350;28;20454;-71
2024/02/03 12:33:02;;;;;;;3.37;2.30;;;9.10;99.90;;;;;;5031849;28;20996;-70
2024/02/03 12:35:47;;;;;;;3.27;2.87;;;9.10;99.90;;;;;;5036974;28;20504;-71
2024/02/03 12:38:35;;;;;;;3.97;2.40;;;9.10;99.90;;;;;;5027006;28;20549;-72
2024/02/03 12:41:21;;;;;;;2.93;2.20;;;9.20;99.90;;;;;;5035634;28;20574;-71
2024/02/03 12:44:07;;;;;;;3.07;2.30;;;9.30;99.90;;;;;;5033970;28;20447;-71
2024/02/03 12:46:52;;;;;;;2.80;1.80;;;9.30;99.90;;;;;;5039774;28;20437;-71
2024/02/03 12:49:38;;;;;;;3.33;1.87;;;9.30;99.90;;;;;;5033139;28;21096;-71
2024/02/03 12:52:24;;;;;;;3.90;2.40;;;9.30;99.90;;;;;;5035406;28;20440;-71
2024/02/03 12:55:13;;;;;;;3.33;2.07;;;9.20;99.90;;;;;;5040748;28;20454;-72
2024/02/03 12:57:59;;;;;;;5.10;2.77;;;9.20;99.90;;;;;;5045022;28;20970;-71
2024/02/03 13:00:45;;;;;;;3.10;2.20;;;9.10;99.90;;;;;;5039251;28;20433;-72
2024/02/03 13:03:30;;;;;;;3.20;2.20;;;9.20;99.90;;;;;;5052042;28;20430;-71
2024/02/03 13:06:16;;;;;;;3.80;2.22;;;9.20;99.90;;;;;;5037278;28;20444;-71
2024/02/03 13:09:02;;;;;;;2.80;2.17;;;9.30;99.90;;;;;;5032427;28;20229;-71
2024/02/03 13:11:49;;;;;;;5.43;3.70;;;9.30;99.90;;;;;;5023021;28;20458;-70
2024/02/03 13:14:35;;;;;;;3.40;2.40;;;9.30;99.90;;;;;;5025831;28;20443;-70
2024/02/03 13:17:20;;;;;;;6.07;2.97;;;9.30;99.90;;;;;;5034997;28;20562;-70
2024/02/03 13:20:07;;;;;;;5.37;3.10;;;9.40;99.90;;;;;;5040102;28;20435;-70
2024/02/03 13:22:53;;;;;;;5.27;2.67;;;9.40;99.90;;;;;;5042858;28;20441;-71
2024/02/03 13:25:39;;;;;;;3.17;2.10;;;9.40;99.90;;;;;;5048841;28;20920;-70
2024/02/03 13:28:26;;;;;;;10.43;5.63;;;9.40;99.90;;;;;;5036519;28;20570;-70
2024/02/03 13:31:11;;;;;;;2.43;1.60;;;9.40;99.90;;;;;;5039042;28;20928;-70
2024/02/03 13:33:57;;;;;;;3.20;2.20;;;9.50;99.90;;;;;;5039464;28;20404;-70
2024/02/03 13:36:43;;;;;;;5.33;2.30;;;9.40;99.90;;;;;;5042617;28;20406;-70
2024/02/03 13:39:29;;;;;;;2.67;1.83;;;9.40;99.90;;;;;;5036931;28;20430;-70
2024/02/03 13:42:27;;;;;;;3.50;2.17;;;9.50;99.90;;;;;;5010330;23;20492;-89
2024/02/03 13:45:14;;;;;;;2.67;1.70;;;9.40;99.90;;;;;;4997507;28;20543;-88
2024/02/03 13:47:59;;;;;;;4.63;2.43;;;9.40;99.90;;;;;;4995453;28;20418;-89
2024/02/03 13:50:45;;;;;;;3.53;1.77;;;9.50;99.90;;;;;;4994351;28;20487;-89
2024/02/03 13:53:30;;;;;;;4.30;2.83;;;9.50;99.90;;;;;;4992065;28;20420;-90
2024/02/03 13:56:17;;;;;;;4.23;2.77;;;9.40;99.90;;;;;;4997661;28;20800;-89
2024/02/03 13:59:04;;;;;;;2.97;1.97;;;9.40;99.90;;;;;;4994942;28;20425;-89
2024/02/03 14:01:51;;;;;;;2.40;1.93;;;9.40;99.90;;;;;;5001196;28;20900;-89
2024/02/03 14:04:37;;;;;;;3.70;2.60;;;9.40;99.90;;;;;;4992978;28;20470;-89
2024/02/03 14:07:22;;;;;;;6.80;4.40;;;9.50;99.90;;;;;;4992041;28;21104;-89
2024/02/03 14:10:09;;;;;;;4.50;3.60;;;9.40;99.90;;;;;;4995594;28;20608;-89
2024/02/03 14:13:01;;;;;;;3.90;2.07;;;9.50;99.90;;;;;;4994622;28;20489;-89
2024/02/03 14:15:47;;;;;;;3.10;2.57;;;9.50;99.90;;;;;;4995100;28;20412;-89
2024/02/03 14:18:34;;;;;;;5.37;3.03;;;9.50;99.90;;;;;;4994848;28;20882;-90
2024/02/03 14:21:19;;;;;;;3.07;2.13;;;9.50;99.90;;;;;;4994321;28;20412;-89
2024/02/03 14:24:08;;;;;;;2.90;2.23;;;9.40;99.90;;;;;;4994871;28;20421;-90
2024/02/03 14:26:54;;;;;;;4.70;2.67;;;9.50;99.90;;;;;;4994683;28;20428;-89